createdAt,value
2018-10-11T00:01:39.282Z,8.50
2018-10-11T00:04:07.790Z,8.40
2018-10-11T00:06:36.259Z,8.40
2018-10-11T00:09:07.139Z,8.20
2018-10-11T00:11:35.591Z,8.40
2018-10-11T00:14:04.052Z,8.40
2018-10-11T00:16:32.554Z,8.40
2018-10-11T00:19:01.019Z,8.40
2018-10-11T00:21:29.491Z,8.30
2018-10-11T00:23:57.958Z,8.30
2018-10-11T00:26:26.465Z,8.30
2018-10-11T00:28:55.015Z,8.40
2018-10-11T00:31:23.482Z,8.40
2018-10-11T00:33:51.930Z,8.30
2018-10-11T00:36:20.394Z,8.20
2018-10-11T00:38:48.851Z,8.20
2018-10-11T00:41:17.406Z,8.10
2018-10-11T00:43:45.859Z,8.10
2018-10-11T00:46:14.335Z,8.00
2018-10-11T00:48:42.783Z,8.00
2018-10-11T00:51:11.260Z,7.90
2018-10-11T00:53:39.722Z,7.80
2018-10-11T00:56:08.222Z,7.90
2018-10-11T00:58:36.683Z,7.90
2018-10-11T01:01:05.151Z,7.90
2018-10-11T01:03:33.606Z,7.90
2018-10-11T01:06:02.101Z,7.90
2018-10-11T01:08:30.631Z,7.90
2018-10-11T01:10:59.086Z,7.90
2018-10-11T01:13:27.555Z,7.90
2018-10-11T01:15:56.016Z,8.00
2018-10-11T01:18:24.583Z,8.00
2018-10-11T01:20:53.193Z,8.00
2018-10-11T01:23:21.646Z,8.00
2018-10-11T01:25:50.123Z,7.90
2018-10-11T01:28:18.591Z,7.90
2018-10-11T01:30:52.434Z,7.90
2018-10-11T01:33:20.894Z,7.90
2018-10-11T01:35:49.346Z,8.10
2018-10-11T01:38:17.821Z,8.00
2018-10-11T01:40:46.358Z,8.00
2018-10-11T01:43:14.884Z,8.00
2018-10-11T01:45:43.366Z,7.90
2018-10-11T01:48:11.882Z,8.00
2018-10-11T01:50:40.385Z,7.90
2018-10-11T01:53:08.906Z,7.90
2018-10-11T01:55:37.379Z,7.90
2018-10-11T01:58:05.890Z,7.80
2018-10-11T02:00:34.359Z,7.80
2018-10-11T02:03:02.818Z,7.90
2018-10-11T02:05:31.334Z,7.90
2018-10-11T02:08:00.131Z,7.90
2018-10-11T02:10:29.423Z,7.90
2018-10-11T02:12:58.743Z,8.00
2018-10-11T02:15:27.927Z,7.90
2018-10-11T02:17:57.042Z,8.00
2018-10-11T02:20:25.827Z,8.00
2018-10-11T02:22:54.311Z,8.10
2018-10-11T02:25:22.795Z,8.00
2018-10-11T02:27:51.262Z,8.00
2018-10-11T02:30:19.764Z,7.90
2018-10-11T02:32:48.248Z,7.80
2018-10-11T02:35:16.698Z,7.80
2018-10-11T02:37:45.158Z,7.70
2018-10-11T02:40:13.611Z,7.70
2018-10-11T02:42:42.093Z,7.60
2018-10-11T02:45:10.560Z,7.60
2018-10-11T02:47:39.038Z,7.60
2018-10-11T02:50:07.607Z,7.50
2018-10-11T02:52:36.059Z,7.40
2018-10-11T02:55:04.959Z,7.50
2018-10-11T02:57:44.610Z,7.60
2018-10-11T03:00:13.154Z,7.70
2018-10-11T03:02:42.900Z,7.60
2018-10-11T03:05:16.618Z,7.60
2018-10-11T03:07:45.244Z,7.60
2018-10-11T03:10:14.040Z,7.50
2018-10-11T03:12:51.545Z,7.50
2018-10-11T03:15:20.030Z,7.50
2018-10-11T03:17:48.550Z,7.40
2018-10-11T03:20:17.082Z,7.30
2018-10-11T03:22:45.557Z,7.30
2018-10-11T03:25:14.044Z,7.40
2018-10-11T03:27:42.519Z,7.30
2018-10-11T03:30:13.814Z,7.30
2018-10-11T03:32:42.294Z,7.20
2018-10-11T03:35:10.747Z,7.20
2018-10-11T03:37:39.219Z,7.20
2018-10-11T03:40:07.760Z,7.20
2018-10-11T03:42:36.323Z,7.10
2018-10-11T03:45:04.907Z,7.10
2018-10-11T03:47:33.377Z,7.20
2018-10-11T03:50:01.836Z,7.30
2018-10-11T03:52:30.376Z,7.30
2018-10-11T03:54:58.831Z,7.20
2018-10-11T03:57:27.299Z,7.40
2018-10-11T03:59:55.769Z,7.30
2018-10-11T04:02:24.234Z,7.30
2018-10-11T04:04:52.690Z,7.20
2018-10-11T04:07:21.185Z,7.20
2018-10-11T04:09:49.666Z,7.20
2018-10-11T04:12:18.118Z,7.20
2018-10-11T04:14:46.574Z,7.20
2018-10-11T04:17:15.050Z,7.20
2018-10-11T04:19:43.499Z,7.20
2018-10-11T04:22:12.057Z,7.10
2018-10-11T04:24:40.658Z,7.10
2018-10-11T04:27:09.210Z,7.00
2018-10-11T04:29:37.674Z,6.90
2018-10-11T04:32:06.151Z,6.90
2018-10-11T04:34:34.595Z,6.90
2018-10-11T04:37:03.070Z,6.90
2018-10-11T04:39:31.587Z,7.00
2018-10-11T04:42:00.043Z,7.00
2018-10-11T04:44:29.820Z,7.00
2018-10-11T04:46:58.662Z,6.90
2018-10-11T04:49:27.718Z,6.90
2018-10-11T04:51:56.183Z,6.90
2018-10-11T04:54:24.639Z,6.80
2018-10-11T04:56:53.095Z,6.70
2018-10-11T04:59:21.563Z,6.70
2018-10-11T05:01:50.435Z,6.70
2018-10-11T05:04:18.910Z,6.80
2018-10-11T05:06:47.371Z,6.80
2018-10-11T05:09:15.908Z,6.90
2018-10-11T05:11:44.459Z,7.00
2018-10-11T05:14:14.474Z,6.90
2018-10-11T05:16:43.103Z,6.90
2018-10-11T05:19:11.636Z,7.00
2018-10-11T05:21:40.471Z,7.10
2018-10-11T05:24:08.950Z,7.10
2018-10-11T05:26:37.450Z,7.00
2018-10-11T05:29:05.939Z,7.00
2018-10-11T05:31:34.507Z,7.00
2018-10-11T05:34:02.967Z,7.00
2018-10-11T05:36:31.430Z,7.00
2018-10-11T05:38:59.882Z,6.90
2018-10-11T05:41:28.366Z,6.90
2018-10-11T05:43:56.942Z,7.00
2018-10-11T05:46:31.530Z,7.00
2018-10-11T05:49:00.979Z,7.00
2018-10-11T05:51:30.497Z,7.20
2018-10-11T05:53:59.858Z,7.30
2018-10-11T05:56:30.427Z,7.40
2018-10-11T05:58:59.678Z,7.40
2018-10-11T06:01:28.270Z,7.50
2018-10-11T06:03:57.759Z,7.50
2018-10-11T06:06:26.272Z,7.60
2018-10-11T06:08:55.130Z,7.70
2018-10-11T06:11:23.711Z,7.80
2018-10-11T06:13:52.219Z,8.00
2018-10-11T06:16:20.694Z,8.00
2018-10-11T06:18:49.215Z,8.30
2018-10-11T06:21:17.727Z,8.30
2018-10-11T06:23:46.243Z,8.30
2018-10-11T06:26:15.112Z,8.30
2018-10-11T06:28:43.738Z,8.30
2018-10-11T06:31:12.322Z,8.40
2018-10-11T06:33:42.209Z,8.40
2018-10-11T06:36:10.839Z,8.50
2018-10-11T06:38:39.235Z,8.60
2018-10-11T06:41:07.736Z,8.60
2018-10-11T06:43:36.286Z,8.70
2018-10-11T06:46:04.818Z,8.70
2018-10-11T06:48:33.370Z,8.80
2018-10-11T06:51:01.871Z,8.90
2018-10-11T06:53:30.429Z,9.00
2018-10-11T06:55:58.957Z,9.00
2018-10-11T06:58:27.395Z,9.10
2018-10-11T07:00:55.851Z,9.20
2018-10-11T07:03:24.344Z,9.30
2018-10-11T07:05:52.942Z,9.40
2018-10-11T07:08:21.674Z,9.40
2018-10-11T07:10:50.135Z,9.50
2018-10-11T07:13:18.610Z,9.60
2018-10-11T07:15:47.084Z,9.70
2018-10-11T07:18:15.547Z,9.80
2018-10-11T07:20:44.243Z,9.90
2018-10-11T07:23:12.770Z,10.00
2018-10-11T07:25:41.421Z,10.10
2018-10-11T07:28:09.778Z,10.20
2018-10-11T07:30:38.286Z,10.30
2018-10-11T07:33:06.823Z,10.40
2018-10-11T07:35:35.344Z,10.60
2018-10-11T07:38:03.779Z,10.70
2018-10-11T07:40:32.435Z,10.70
2018-10-11T07:43:00.854Z,10.90
2018-10-11T07:45:29.320Z,11.00
2018-10-11T07:47:58.174Z,11.10
2018-10-11T07:50:26.751Z,11.20
2018-10-11T07:52:55.356Z,11.30
2018-10-11T07:55:23.813Z,11.30
2018-10-11T07:57:52.300Z,11.50
2018-10-11T08:00:20.886Z,11.50
2018-10-11T08:02:49.361Z,11.70
2018-10-11T08:05:17.815Z,11.80
2018-10-11T08:07:46.360Z,11.90
2018-10-11T08:10:14.853Z,11.90
2018-10-11T08:12:43.322Z,12.10
2018-10-11T08:15:11.891Z,12.20
2018-10-11T08:17:40.609Z,12.40
2018-10-11T08:20:09.114Z,12.50
2018-10-11T08:22:37.582Z,12.60
2018-10-11T08:25:06.282Z,12.80
2018-10-11T08:27:34.601Z,12.90
2018-10-11T08:30:03.259Z,13.00
2018-10-11T08:32:31.934Z,13.20
2018-10-11T08:35:00.218Z,13.30
2018-10-11T08:37:28.794Z,13.40
2018-10-11T08:39:57.207Z,13.60
2018-10-11T08:42:25.670Z,13.70
2018-10-11T08:44:54.130Z,13.90
2018-10-11T08:47:22.627Z,14.00
2018-10-11T08:49:51.086Z,14.10
2018-10-11T08:52:19.619Z,14.20
2018-10-11T08:54:49.556Z,14.40
2018-10-11T08:57:18.855Z,14.50
2018-10-11T08:59:47.407Z,14.60
2018-10-11T09:02:15.934Z,14.80
2018-10-11T09:04:44.715Z,14.90
2018-10-11T09:07:13.190Z,15.00
2018-10-11T09:09:42.131Z,15.10
2018-10-11T09:12:10.555Z,15.20
2018-10-11T09:14:39.022Z,15.30
2018-10-11T09:17:07.549Z,15.40
2018-10-11T09:19:35.990Z,15.50
2018-10-11T09:22:04.528Z,15.60
2018-10-11T09:24:33.017Z,15.70
2018-10-11T09:27:01.511Z,15.80
2018-10-11T09:29:29.998Z,15.90
2018-10-11T09:31:58.467Z,15.90
2018-10-11T09:34:26.929Z,16.00
2018-10-11T09:36:55.398Z,16.20
2018-10-11T09:39:23.867Z,16.20
2018-10-11T09:41:52.330Z,16.20
2018-10-11T09:44:20.790Z,16.30
2018-10-11T09:46:49.338Z,16.30
2018-10-11T09:49:17.812Z,16.40
2018-10-11T09:51:46.288Z,16.50
2018-10-11T09:54:14.815Z,16.60
2018-10-11T09:57:49.831Z,16.60
2018-10-11T10:00:23.614Z,16.70
2018-10-11T10:02:52.615Z,16.80
2018-10-11T10:05:21.090Z,16.90
2018-10-11T10:07:49.554Z,16.90
2018-10-11T10:10:18.014Z,17.00
2018-10-11T10:12:46.481Z,17.00
2018-10-11T10:15:14.977Z,17.00
2018-10-11T10:17:43.443Z,16.90
2018-10-11T10:20:11.988Z,17.00
2018-10-11T10:22:40.459Z,17.10
2018-10-11T10:25:08.938Z,17.20
2018-10-11T10:27:37.410Z,17.20
2018-10-11T10:30:11.562Z,17.30
2018-10-11T10:32:40.101Z,17.30
2018-10-11T10:35:08.582Z,17.40
2018-10-11T10:37:37.039Z,17.50
2018-10-11T10:40:05.604Z,17.60
2018-10-11T10:42:34.027Z,17.60
2018-10-11T10:45:02.979Z,17.60
2018-10-11T10:47:31.491Z,17.70
2018-10-11T10:49:59.940Z,17.70
2018-10-11T10:52:28.403Z,17.60
2018-10-11T10:54:56.870Z,17.60
2018-10-11T10:57:25.330Z,17.70
2018-10-11T10:59:53.804Z,17.80
2018-10-11T11:02:22.264Z,17.90
2018-10-11T11:04:50.731Z,17.90
2018-10-11T11:07:19.234Z,18.00
2018-10-11T11:09:47.694Z,18.00
2018-10-11T11:12:16.153Z,18.10
2018-10-11T11:14:44.606Z,18.00
2018-10-11T11:17:13.066Z,18.20
2018-10-11T11:19:41.539Z,18.10
2018-10-11T11:22:10.051Z,18.20
2018-10-11T11:24:38.503Z,18.20
2018-10-11T11:27:06.970Z,18.30
2018-10-11T11:29:35.432Z,18.40
2018-10-11T11:32:03.923Z,18.50
2018-10-11T11:34:32.433Z,18.60
2018-10-11T11:37:00.922Z,18.60
2018-10-11T11:39:29.383Z,18.70
2018-10-11T11:41:57.855Z,18.60
2018-10-11T11:44:26.367Z,18.60
2018-10-11T11:46:54.844Z,18.60
2018-10-11T11:49:23.303Z,18.60
2018-10-11T11:51:51.864Z,18.70
2018-10-11T11:54:21.648Z,18.60
2018-10-11T11:56:51.054Z,18.50
2018-10-11T11:59:19.542Z,18.50
2018-10-11T12:01:48.216Z,18.60
2018-10-11T12:04:16.758Z,18.60
2018-10-11T12:06:45.230Z,18.70
2018-10-11T12:09:14.534Z,18.50
2018-10-11T12:11:43.559Z,18.50
2018-10-11T12:14:12.027Z,18.60
2018-10-11T12:16:40.564Z,18.60
2018-10-11T12:19:10.558Z,18.70
2018-10-11T12:21:39.330Z,18.70
2018-10-11T12:24:07.810Z,18.80
2018-10-11T12:26:36.275Z,18.70
2018-10-11T12:29:05.023Z,18.80
2018-10-11T12:31:33.501Z,18.90
2018-10-11T12:34:01.984Z,18.90
2018-10-11T12:36:30.498Z,18.90
2018-10-11T12:38:58.923Z,19.00
2018-10-11T12:41:27.410Z,19.10
2018-10-11T12:43:55.882Z,19.10
2018-10-11T12:46:24.378Z,19.00
2018-10-11T12:48:52.850Z,19.00
2018-10-11T12:51:21.314Z,19.20
2018-10-11T12:53:49.770Z,19.20
2018-10-11T12:56:18.302Z,19.20
2018-10-11T12:58:46.710Z,19.20
2018-10-11T13:01:17.271Z,19.20
2018-10-11T13:03:43.695Z,19.20
2018-10-11T13:06:12.163Z,19.30
2018-10-11T13:08:40.674Z,19.30
2018-10-11T13:11:09.175Z,19.40
2018-10-11T13:13:37.676Z,19.40
2018-10-11T13:16:06.179Z,19.40
2018-10-11T13:18:34.650Z,19.30
2018-10-11T13:21:03.115Z,19.30
2018-10-11T13:23:31.572Z,19.30
2018-10-11T13:26:00.030Z,19.20
2018-10-11T13:28:28.503Z,19.30
2018-10-11T13:30:56.958Z,19.30
2018-10-11T13:33:25.423Z,19.30
2018-10-11T13:35:53.891Z,19.30
2018-10-11T13:38:22.343Z,19.30
2018-10-11T13:40:53.257Z,19.20
2018-10-11T13:43:19.271Z,19.20
2018-10-11T13:45:48.464Z,19.30
2018-10-11T13:48:16.423Z,19.20
2018-10-11T13:50:44.919Z,19.30
2018-10-11T13:53:18.366Z,19.20
2018-10-11T13:55:45.272Z,19.20
2018-10-11T13:58:10.446Z,19.20
2018-10-11T14:00:38.939Z,19.20
2018-10-11T14:03:07.614Z,19.20
2018-10-11T14:05:36.075Z,19.20
2018-10-11T14:08:04.562Z,19.10
2018-10-11T14:10:33.110Z,19.10
2018-10-11T14:13:01.551Z,19.10
2018-10-11T14:15:30.004Z,19.10
2018-10-11T14:18:03.253Z,19.10
2018-10-11T14:20:26.966Z,19.10
2018-10-11T14:22:55.436Z,19.10
2018-10-11T14:25:23.921Z,19.00
2018-10-11T14:27:52.382Z,18.90
2018-10-11T14:30:20.834Z,18.90
2018-10-11T14:32:49.327Z,18.90
2018-10-11T14:35:17.794Z,18.80
2018-10-11T14:37:46.250Z,18.80
2018-10-11T14:40:14.764Z,18.80
2018-10-11T14:42:43.271Z,18.70
2018-10-11T14:45:11.834Z,18.70
2018-10-11T14:47:40.314Z,18.60
2018-10-11T14:50:08.924Z,18.60
2018-10-11T14:52:37.504Z,18.50
2018-10-11T14:55:06.407Z,18.50
2018-10-11T14:57:34.875Z,18.40
2018-10-11T15:00:03.539Z,18.40
2018-10-11T15:02:32.069Z,18.30
2018-10-11T15:05:00.535Z,18.20
2018-10-11T15:07:29.110Z,18.20
2018-10-11T15:09:57.598Z,18.10
2018-10-11T15:12:26.074Z,18.10
2018-10-11T15:14:54.543Z,18.00
2018-10-11T15:17:23.021Z,17.90
2018-10-11T15:19:51.494Z,17.80
2018-10-11T15:22:20.111Z,17.80
2018-10-11T15:24:48.564Z,17.60
2018-10-11T15:27:17.123Z,17.60
2018-10-11T15:29:45.647Z,17.50
2018-10-11T15:32:14.110Z,17.50
2018-10-11T15:34:42.590Z,17.40
2018-10-11T15:37:11.063Z,17.30
2018-10-11T15:39:39.527Z,17.20
2018-10-11T15:42:08.027Z,17.10
2018-10-11T15:44:36.508Z,17.10
2018-10-11T15:47:05.010Z,16.90
2018-10-11T15:49:33.534Z,16.80
2018-10-11T15:52:02.041Z,16.60
2018-10-11T15:54:30.495Z,16.50
2018-10-11T15:56:58.966Z,16.40
2018-10-11T15:59:27.435Z,16.20
2018-10-11T16:01:55.898Z,16.10
2018-10-11T16:04:24.366Z,16.00
2018-10-11T16:06:52.852Z,15.90
2018-10-11T16:09:21.360Z,15.70
2018-10-11T16:11:49.878Z,15.60
2018-10-11T16:14:18.337Z,15.40
2018-10-11T16:16:46.794Z,15.20
2018-10-11T16:19:15.331Z,15.10
2018-10-11T16:21:43.830Z,15.00
2018-10-11T16:24:12.310Z,14.80
2018-10-11T16:26:40.799Z,14.60
2018-10-11T16:29:09.343Z,14.40
2018-10-11T16:31:37.874Z,14.20
2018-10-11T16:34:06.336Z,14.10
2018-10-11T16:36:34.809Z,14.00
2018-10-11T16:39:03.733Z,13.90
2018-10-11T16:41:32.271Z,13.80
2018-10-11T16:44:00.723Z,13.70
2018-10-11T16:46:29.208Z,13.70
2018-10-11T16:48:57.671Z,13.70
2018-10-11T16:51:26.139Z,13.60
2018-10-11T16:53:54.610Z,13.60
2018-10-11T16:56:23.085Z,13.50
2018-10-11T16:58:51.562Z,13.50
2018-10-11T17:01:20.023Z,13.40
2018-10-11T17:03:48.479Z,13.20
2018-10-11T17:06:16.939Z,13.20
2018-10-11T17:08:45.404Z,13.10
2018-10-11T17:11:13.886Z,12.90
2018-10-11T17:13:42.447Z,12.80
2018-10-11T17:16:10.914Z,12.70
2018-10-11T17:18:39.374Z,12.60
2018-10-11T17:21:07.890Z,12.50
2018-10-11T17:23:36.579Z,12.50
2018-10-11T17:26:05.234Z,12.50
2018-10-11T17:28:33.748Z,12.50
2018-10-11T17:31:02.227Z,12.60
2018-10-11T17:33:30.766Z,12.80
2018-10-11T17:35:59.263Z,12.80
2018-10-11T17:38:27.731Z,12.80
2018-10-11T17:40:56.235Z,12.80
2018-10-11T17:43:24.694Z,12.80
2018-10-11T17:45:53.164Z,12.70
2018-10-11T17:48:21.619Z,12.60
2018-10-11T17:50:50.083Z,12.50
2018-10-11T17:53:18.554Z,12.30
2018-10-11T17:55:47.023Z,12.20
2018-10-11T17:58:15.490Z,12.00
2018-10-11T18:00:43.974Z,11.90
2018-10-11T18:03:12.441Z,11.90
2018-10-11T18:05:40.934Z,11.80
2018-10-11T18:08:09.419Z,11.80
2018-10-11T18:10:37.887Z,11.70
2018-10-11T18:13:06.551Z,11.60
2018-10-11T18:15:35.088Z,11.60
2018-10-11T18:18:03.588Z,11.50
2018-10-11T18:20:32.223Z,11.40
2018-10-11T18:23:00.676Z,11.30
2018-10-11T18:25:29.146Z,11.30
2018-10-11T18:27:57.610Z,11.20
2018-10-11T18:30:26.087Z,11.20
2018-10-11T18:32:54.580Z,11.30
2018-10-11T18:35:23.910Z,11.20
2018-10-11T18:37:52.414Z,11.20
2018-10-11T18:40:20.901Z,11.20
2018-10-11T18:42:49.404Z,11.20
2018-10-11T18:45:18.028Z,11.20
2018-10-11T18:47:46.499Z,11.20
2018-10-11T18:50:14.987Z,11.10
2018-10-11T18:52:43.455Z,11.00
2018-10-11T18:55:11.937Z,10.90
2018-10-11T18:57:40.469Z,10.90
2018-10-11T19:00:09.020Z,10.80
2018-10-11T19:02:37.543Z,10.70
2018-10-11T19:05:06.096Z,10.60
2018-10-11T19:07:34.590Z,10.60
2018-10-11T19:10:03.142Z,10.60
2018-10-11T19:12:31.646Z,10.50
2018-10-11T19:15:00.109Z,10.60
2018-10-11T19:17:28.589Z,10.60
2018-10-11T19:19:57.065Z,10.60
2018-10-11T19:22:25.532Z,10.60
2018-10-11T19:24:54.038Z,10.70
2018-10-11T19:27:22.522Z,10.60
2018-10-11T19:29:50.994Z,10.50
2018-10-11T19:32:19.522Z,10.40
2018-10-11T19:34:48.006Z,10.30
2018-10-11T19:37:16.698Z,10.30
2018-10-11T19:39:45.159Z,10.40
2018-10-11T19:42:13.626Z,10.40
2018-10-11T19:44:42.127Z,10.40
2018-10-11T19:47:10.718Z,10.30
2018-10-11T19:49:39.185Z,10.20
2018-10-11T19:52:07.725Z,10.20
2018-10-11T19:54:36.187Z,10.10
2018-10-11T19:57:04.667Z,10.00
2018-10-11T19:59:33.198Z,10.10
2018-10-11T20:02:01.667Z,10.30
2018-10-11T20:04:30.121Z,10.30
2018-10-11T20:06:58.615Z,10.30
2018-10-11T20:09:27.096Z,10.20
2018-10-11T20:11:55.563Z,10.10
2018-10-11T20:14:24.039Z,10.00
2018-10-11T20:16:52.598Z,9.90
2018-10-11T20:19:21.062Z,9.80
2018-10-11T20:21:49.522Z,9.80
2018-10-11T20:24:17.991Z,9.80
2018-10-11T20:26:46.447Z,9.70
2018-10-11T20:29:14.914Z,9.70
2018-10-11T20:31:43.379Z,9.60
2018-10-11T20:34:11.855Z,9.60
2018-10-11T20:36:40.317Z,9.60
2018-10-11T20:39:09.758Z,9.60
2018-10-11T20:41:38.597Z,9.60
2018-10-11T20:44:07.111Z,9.60
2018-10-11T20:46:35.582Z,9.50
2018-10-11T20:49:04.067Z,9.40
2018-10-11T20:51:32.642Z,9.40
2018-10-11T20:54:01.099Z,9.40
2018-10-11T20:56:29.566Z,9.40
2018-10-11T20:58:58.028Z,9.40
2018-10-11T21:01:26.490Z,9.40
2018-10-11T21:03:54.949Z,9.50
2018-10-11T21:06:23.430Z,9.40
2018-10-11T21:08:51.882Z,9.30
2018-10-11T21:11:20.350Z,9.30
2018-10-11T21:13:48.839Z,9.30
2018-10-11T21:16:17.323Z,9.20
2018-10-11T21:18:45.775Z,9.20
2018-10-11T21:21:14.290Z,9.20
2018-10-11T21:23:42.920Z,9.30
2018-10-11T21:26:11.392Z,9.40
2018-10-11T21:28:39.860Z,9.40
2018-10-11T21:31:08.315Z,9.30
2018-10-11T21:33:36.811Z,9.20
2018-10-11T21:36:05.398Z,9.10
2018-10-11T21:38:33.848Z,9.10
2018-10-11T21:41:02.324Z,9.00
2018-10-11T21:43:30.815Z,9.00
2018-10-11T21:45:59.279Z,9.10
2018-10-11T21:48:27.756Z,9.10
2018-10-11T21:50:56.211Z,9.10
2018-10-11T21:53:24.679Z,9.10
2018-10-11T21:55:53.142Z,9.10
2018-10-11T21:58:21.642Z,9.20
2018-10-11T22:00:55.402Z,9.30
2018-10-11T22:03:24.151Z,9.20
2018-10-11T22:05:52.639Z,9.20
2018-10-11T22:08:21.116Z,9.10
2018-10-11T22:10:49.587Z,9.10
2018-10-11T22:13:18.053Z,9.10
2018-10-11T22:15:46.523Z,9.10
2018-10-11T22:18:14.978Z,9.10
2018-10-11T22:20:43.512Z,9.00
2018-10-11T22:23:11.950Z,9.00
2018-10-11T22:25:40.414Z,9.00
2018-10-11T22:28:08.956Z,9.00
2018-10-11T22:30:37.495Z,9.00
2018-10-11T22:33:05.953Z,9.00
2018-10-11T22:35:34.394Z,8.90
2018-10-11T22:38:02.859Z,9.00
2018-10-11T22:40:31.557Z,8.90
2018-10-11T22:43:00.037Z,9.00
2018-10-11T22:45:28.538Z,9.10
2018-10-11T22:47:57.319Z,9.00
2018-10-11T22:50:27.038Z,8.80
2018-10-11T22:52:56.126Z,8.80
2018-10-11T22:55:25.542Z,8.70
2018-10-11T22:57:54.674Z,8.80
2018-10-11T23:00:23.141Z,9.00
2018-10-11T23:02:52.203Z,8.80
2018-10-11T23:05:20.774Z,9.00
2018-10-11T23:07:49.478Z,9.10
2018-10-11T23:10:17.955Z,8.90
2018-10-11T23:12:46.411Z,8.80
2018-10-11T23:15:14.988Z,8.70
2018-10-11T23:17:43.358Z,8.70
2018-10-11T23:20:12.107Z,8.60
2018-10-11T23:22:41.583Z,8.50
2018-10-11T23:25:10.608Z,8.40
2018-10-11T23:27:39.462Z,8.40
2018-10-11T23:30:08.383Z,8.40
2018-10-11T23:32:36.910Z,8.30
2018-10-11T23:35:05.991Z,8.40
2018-10-11T23:37:34.484Z,8.40
2018-10-11T23:40:02.947Z,8.40
2018-10-11T23:42:31.450Z,8.60
2018-10-11T23:44:59.910Z,8.80
2018-10-11T23:47:28.428Z,8.80
2018-10-11T23:49:56.926Z,8.80
2018-10-11T23:52:25.606Z,8.80
2018-10-11T23:54:54.136Z,8.70
2018-10-11T23:57:22.608Z,8.70
2018-10-11T23:59:51.063Z,8.60
